createdAt,value
2024-02-13T00:02:25.357Z,68.77
2024-02-13T00:07:25.948Z,69.56
2024-02-13T00:12:25.003Z,69.52
2024-02-13T00:17:24.678Z,70.50
2024-02-13T00:22:25.571Z,71.79
2024-02-13T00:27:24.504Z,70.98
2024-02-13T00:32:23.473Z,71.52
2024-02-13T00:37:24.573Z,71.06
2024-02-13T00:42:25.059Z,70.62
2024-02-13T00:47:23.998Z,70.76
2024-02-13T00:52:22.864Z,71.24
2024-02-13T00:57:21.895Z,70.21
2024-02-13T01:02:24.050Z,70.79
2024-02-13T01:07:22.934Z,70.16
2024-02-13T01:12:21.833Z,70.78
2024-02-13T01:17:22.224Z,70.61
2024-02-13T01:22:21.157Z,70.15
2024-02-13T01:27:21.377Z,71.88
2024-02-13T01:32:21.689Z,72.38
2024-02-13T01:37:21.273Z,72.47
2024-02-13T01:42:20.147Z,72.98
2024-02-13T01:47:19.267Z,73.97
2024-02-13T01:52:20.304Z,73.32
2024-02-13T01:57:20.194Z,75.09
2024-02-13T02:02:19.633Z,74.10
2024-02-13T02:07:20.900Z,74.93
2024-02-13T02:12:19.811Z,75.60
2024-02-13T02:17:18.727Z,77.17
2024-02-13T02:22:17.611Z,77.50
2024-02-13T02:27:19.055Z,77.74
2024-02-13T02:32:18.127Z,76.51
2024-02-13T02:37:17.118Z,77.75
2024-02-13T02:42:19.255Z,77.61
2024-02-13T02:47:19.479Z,78.39
2024-02-13T02:52:19.046Z,79.78
2024-02-13T02:57:19.249Z,79.32
2024-02-13T03:02:18.024Z,80.48
2024-02-13T03:07:16.994Z,81.32
2024-02-13T03:12:15.828Z,80.84
2024-02-13T03:17:16.111Z,79.33
2024-02-13T03:22:15.256Z,80.84
2024-02-13T03:27:14.137Z,81.00
2024-02-13T03:32:13.031Z,79.92
2024-02-13T03:37:13.283Z,79.48
2024-02-13T03:42:12.093Z,78.97
2024-02-13T03:47:10.995Z,79.06
2024-02-13T03:52:10.999Z,79.56
2024-02-13T03:57:12.275Z,78.81
2024-02-13T04:02:11.189Z,79.54
2024-02-13T04:07:10.123Z,80.17
2024-02-13T04:12:11.416Z,80.24
2024-02-13T04:17:12.198Z,80.02
2024-02-13T04:22:11.436Z,79.20
2024-02-13T04:27:11.805Z,79.01
2024-02-13T04:32:10.720Z,80.82
2024-02-13T04:37:10.383Z,80.38
2024-02-13T04:42:11.593Z,80.11
2024-02-13T04:47:12.302Z,79.60
2024-02-13T04:52:12.577Z,80.77
2024-02-13T04:57:11.501Z,79.93
2024-02-13T05:02:12.736Z,79.10
2024-02-13T05:07:24.875Z,79.85
2024-02-13T05:12:23.800Z,79.79
2024-02-13T05:17:25.229Z,79.49
2024-02-13T05:22:24.147Z,79.01
2024-02-13T05:27:23.077Z,78.94
2024-02-13T05:32:26.805Z,78.60
2024-02-13T05:37:25.810Z,78.92
2024-02-13T05:42:24.758Z,79.66
2024-02-13T05:47:24.853Z,80.37
2024-02-13T05:52:25.105Z,80.92
2024-02-13T05:57:24.015Z,80.55
2024-02-13T06:02:23.620Z,80.53
2024-02-13T06:07:22.900Z,78.93
2024-02-13T06:12:23.902Z,79.55
2024-02-13T06:17:23.568Z,80.03
2024-02-13T06:22:22.573Z,79.39
2024-02-13T06:27:22.859Z,81.41
2024-02-13T06:32:22.054Z,79.76
2024-02-13T06:37:21.046Z,80.10
2024-02-13T06:42:20.364Z,78.39
2024-02-13T06:47:20.787Z,79.54
2024-02-13T06:52:23.312Z,78.82
2024-02-13T07:08:17.805Z,78.41
2024-02-13T07:13:17.418Z,77.71
2024-02-13T07:18:20.830Z,77.72
2024-02-13T07:23:38.006Z,76.68
2024-02-13T07:28:43.349Z,77.40
2024-02-13T07:33:49.467Z,78.01
2024-02-13T07:38:54.115Z,77.33
2024-02-13T07:43:52.995Z,76.67
2024-02-13T07:49:16.597Z,76.34
2024-02-13T07:54:16.479Z,76.23
2024-02-13T07:59:17.828Z,75.68
2024-02-13T08:04:19.894Z,75.13
2024-02-13T08:09:34.602Z,74.51
2024-02-13T08:14:34.293Z,73.13
2024-02-13T08:19:34.874Z,73.77
2024-02-13T08:24:37.622Z,74.07
2024-02-13T08:29:47.048Z,73.46
2024-02-13T08:35:02.708Z,72.64
2024-02-13T08:40:02.248Z,72.87
2024-02-13T08:45:05.981Z,72.04
2024-02-13T08:50:16.819Z,71.78
2024-02-13T08:55:23.416Z,71.16
2024-02-13T09:00:24.106Z,71.58
2024-02-13T09:05:24.335Z,71.70
2024-02-13T09:10:26.033Z,70.56
2024-02-13T09:15:26.729Z,69.94
2024-02-13T09:20:30.150Z,68.89
2024-02-13T09:26:00.318Z,68.08
2024-02-13T09:31:04.975Z,69.46
2024-02-13T09:41:34.870Z,66.32
2024-02-13T09:46:33.822Z,66.36
2024-02-13T09:51:35.295Z,65.47
2024-02-13T09:56:35.093Z,65.20
2024-02-13T10:01:34.222Z,66.20
2024-02-13T10:06:34.594Z,68.08
2024-02-13T10:11:36.412Z,67.80
2024-02-13T10:16:35.713Z,66.98
2024-02-13T10:21:37.472Z,67.47
2024-02-13T10:26:48.307Z,67.92
2024-02-13T10:31:47.091Z,67.21
2024-02-13T10:36:47.425Z,66.29
2024-02-13T10:42:03.495Z,65.29
2024-02-13T10:47:04.666Z,66.16
2024-02-13T10:52:08.333Z,65.55
2024-02-13T10:57:27.679Z,64.49
2024-02-13T11:02:31.225Z,65.91
2024-02-13T11:07:32.140Z,66.52
2024-02-13T11:12:39.443Z,66.79
2024-02-13T11:17:46.341Z,66.73
2024-02-13T11:22:58.786Z,65.40
2024-02-13T11:28:05.367Z,65.18
2024-02-13T11:33:09.633Z,64.43
2024-02-13T11:38:17.759Z,63.88
2024-02-13T11:43:36.408Z,64.26
2024-02-13T11:48:48.314Z,64.46
2024-02-13T11:53:54.289Z,64.18
2024-02-13T11:59:06.988Z,64.39
2024-02-13T12:04:09.517Z,64.23
2024-02-13T12:09:10.726Z,63.80
2024-02-13T12:14:24.863Z,63.86
2024-02-13T12:19:27.150Z,63.91
2024-02-13T12:24:28.179Z,64.31
2024-02-13T12:29:28.074Z,66.77
2024-02-13T12:34:34.937Z,66.96
2024-02-13T12:39:37.919Z,66.92
2024-02-13T12:44:37.759Z,67.03
2024-02-13T12:49:44.611Z,65.88
2024-02-13T12:54:47.590Z,66.35
2024-02-13T13:00:01.405Z,65.30
2024-02-13T13:05:05.170Z,66.91
2024-02-13T13:10:15.754Z,66.89
2024-02-13T13:15:19.958Z,69.09
2024-02-13T13:20:32.176Z,73.36
2024-02-13T13:25:36.374Z,75.65
2024-02-13T13:30:36.991Z,76.50
2024-02-13T13:35:39.400Z,77.78
2024-02-13T13:40:41.068Z,77.01
2024-02-13T13:45:42.134Z,77.24
2024-02-13T13:50:41.445Z,78.16
2024-02-13T13:55:49.480Z,77.62
2024-02-13T14:00:51.170Z,76.39
2024-02-13T14:05:50.891Z,78.65
2024-02-13T14:10:58.391Z,78.55
2024-02-13T14:16:06.783Z,78.42
2024-02-13T14:21:15.139Z,77.31
2024-02-13T14:26:24.653Z,77.57
2024-02-13T14:31:27.002Z,79.33
2024-02-13T14:36:26.899Z,78.76
2024-02-13T14:41:34.701Z,79.46
2024-02-13T14:46:44.686Z,80.38
2024-02-13T14:51:44.119Z,80.42
2024-02-13T14:56:48.466Z,81.96
2024-02-13T15:01:51.277Z,80.23
2024-02-13T15:06:50.867Z,79.60
2024-02-13T15:12:28.113Z,79.53
2024-02-13T15:17:27.112Z,79.06
2024-02-13T15:22:32.500Z,78.56
2024-02-13T15:27:44.406Z,76.96
2024-02-13T15:32:45.816Z,76.07
2024-02-13T15:38:04.553Z,77.32
2024-02-13T15:43:22.291Z,76.06
2024-02-13T15:48:22.052Z,74.81
2024-02-13T15:53:22.042Z,75.37
2024-02-13T15:58:22.824Z,74.58
2024-02-13T16:03:21.889Z,74.74
2024-02-13T16:08:22.342Z,76.33
2024-02-13T16:13:25.628Z,75.89
2024-02-13T16:18:25.572Z,76.23
2024-02-13T16:23:24.647Z,76.28
2024-02-13T16:28:25.839Z,75.74
2024-02-13T16:33:25.049Z,77.41
2024-02-13T16:38:24.347Z,79.06
2024-02-13T16:43:27.852Z,78.97
2024-02-13T16:48:33.043Z,82.17
2024-02-13T16:53:35.698Z,83.82
2024-02-13T16:58:36.102Z,84.46
2024-02-13T17:03:35.254Z,83.69
2024-02-13T17:08:36.010Z,84.59
2024-02-13T17:13:36.540Z,84.69
2024-02-13T17:18:35.803Z,85.54
2024-02-13T17:23:37.090Z,86.29
2024-02-13T17:28:39.791Z,86.64
2024-02-13T17:33:38.876Z,86.04
2024-02-13T17:38:40.658Z,88.46
2024-02-13T17:43:41.102Z,87.67
2024-02-13T17:48:40.467Z,88.39
2024-02-13T17:53:39.388Z,87.58
2024-02-13T17:58:38.855Z,87.59
2024-02-13T18:03:39.566Z,86.74
2024-02-13T18:08:38.573Z,88.76
2024-02-13T18:13:37.696Z,89.20
2024-02-13T18:18:36.714Z,88.94
2024-02-13T18:23:37.068Z,88.16
2024-02-13T18:28:35.943Z,89.09
2024-02-13T18:33:35.232Z,89.58
2024-02-13T18:38:34.538Z,87.69
2024-02-13T18:43:38.911Z,88.62
2024-02-13T18:48:39.021Z,88.33
2024-02-13T18:53:37.958Z,88.26
2024-02-13T18:58:40.080Z,86.10
2024-02-13T19:03:39.236Z,86.56
2024-02-13T19:08:38.233Z,87.20
2024-02-13T19:13:38.612Z,86.59
2024-02-13T19:18:39.703Z,85.13
2024-02-13T19:23:38.670Z,84.73
2024-02-13T19:28:45.476Z,86.33
2024-02-13T19:33:44.660Z,85.95
2024-02-13T19:38:45.722Z,85.21
2024-02-13T19:43:46.047Z,84.09
2024-02-13T19:48:47.349Z,83.52
2024-02-13T19:53:47.626Z,83.43
2024-02-13T19:58:47.889Z,82.46
2024-02-13T20:03:46.796Z,81.78
2024-02-13T20:08:45.822Z,81.46
2024-02-13T20:13:45.285Z,81.38
2024-02-13T20:18:45.952Z,80.92
2024-02-13T20:23:47.112Z,80.09
2024-02-13T20:28:46.109Z,80.37
2024-02-13T20:33:46.412Z,80.12
2024-02-13T20:38:45.662Z,80.43
2024-02-13T20:43:45.195Z,80.76
2024-02-13T20:48:45.948Z,80.06
2024-02-13T20:53:45.437Z,79.02
2024-02-13T20:58:46.367Z,79.20
2024-02-13T21:03:47.615Z,78.42
2024-02-13T21:08:46.513Z,78.03
2024-02-13T21:13:46.391Z,77.52
2024-02-13T21:18:47.137Z,77.53
2024-02-13T21:23:55.158Z,77.13
2024-02-13T21:28:54.943Z,77.31
2024-02-13T21:33:55.616Z,77.80
2024-02-13T21:38:54.669Z,77.36
2024-02-13T21:43:53.677Z,77.37
2024-02-13T21:48:52.759Z,76.83
2024-02-13T21:53:53.150Z,76.67
2024-02-13T21:58:52.326Z,79.58
2024-02-13T22:03:51.158Z,81.25
2024-02-13T22:08:50.178Z,81.02
2024-02-13T22:13:50.646Z,81.15
2024-02-13T22:18:49.615Z,80.86
2024-02-13T22:23:48.485Z,79.84
2024-02-13T22:28:47.351Z,80.19
2024-02-13T22:33:49.602Z,80.02
2024-02-13T22:38:48.602Z,80.45
2024-02-13T22:43:47.687Z,80.41
2024-02-13T22:48:47.978Z,79.92
2024-02-13T22:53:47.068Z,79.96
2024-02-13T22:58:46.059Z,79.53
2024-02-13T23:03:50.995Z,80.81
2024-02-13T23:08:50.095Z,80.29
2024-02-13T23:13:51.255Z,79.98
2024-02-13T23:18:55.577Z,79.73
2024-02-13T23:23:55.007Z,81.62
2024-02-13T23:28:57.118Z,81.86
2024-02-13T23:33:58.190Z,81.76
2024-02-13T23:38:57.541Z,82.78
2024-02-13T23:43:56.358Z,81.17
2024-02-13T23:48:55.827Z,80.77
2024-02-13T23:53:56.422Z,81.04
2024-02-13T23:58:55.244Z,80.60
